Time;durP1;ratioP1;P1;durP2;ratioP2;P2;SDS_P1;SDS_P2;PMS_P1;PMS_P2;Temp;Humidity;BMP_temperature;BMP_pressure;BME280_temperature;BME280_humidity;BME280_pressure;Samples;Min_cycle;Max_cycle;Signal;HPM_P1;HPM_P2
2021/12/24 00:01:28;;;;;;;;;;;12.50;64.80;;;;;;6192526;23;19922;-89
2021/12/24 00:03:54;;;;;;;;;;;12.50;64.80;;;;;;6188572;23;19915;-89
2021/12/24 00:06:19;;;;;;;;;;;12.50;64.80;;;;;;6163321;23;19935;-89
2021/12/24 00:08:46;;;;;;;;;;;12.60;64.80;;;;;;6183965;23;20201;-89
2021/12/24 00:11:13;;;;;;;;;;;12.60;64.80;;;;;;6187772;23;19931;-89
2021/12/24 00:13:42;;;;;;;;;;;12.50;64.80;;;;;;6160706;23;19904;-90
2021/12/24 00:18:48;;;;;;;;;;;12.60;65.00;;;;;;6187898;23;19909;-89
2021/12/24 00:37:22;;;;;;;;;;;12.70;65.10;;;;;;6186808;23;19907;-90
2021/12/24 00:39:55;;;;;;;;;;;12.70;65.00;;;;;;6156666;23;19979;-89
2021/12/24 00:42:22;;;;;;;;;;;12.70;65.00;;;;;;6174420;23;19912;-89
2021/12/24 00:44:48;;;;;;;;;;;12.80;65.00;;;;;;6185137;23;19942;-89
2021/12/24 00:47:13;;;;;;;;;;;12.80;65.00;;;;;;6183397;23;20035;-90
2021/12/24 00:49:39;;;;;;;;;;;12.80;65.10;;;;;;6180731;23;19908;-90
2021/12/24 00:52:20;;;;;;;;;;;12.80;65.00;;;;;;6186708;23;20442;-90
2021/12/24 00:55:03;;;;;;;;;;;12.80;65.00;;;;;;6183170;23;19956;-89
2021/12/24 00:57:29;;;;;;;;;;;12.90;65.00;;;;;;6185945;23;19912;-90
2021/12/24 00:59:55;;;;;;;;;;;12.80;65.10;;;;;;6185037;23;19963;-90
2021/12/24 01:02:21;;;;;;;;;;;12.90;65.20;;;;;;6182141;23;19908;-90
2021/12/24 01:04:46;;;;;;;;;;;13.00;65.20;;;;;;6156560;23;20204;-90
2021/12/24 01:07:12;;;;;;;;;;;12.90;65.10;;;;;;6160638;23;19916;-90
2021/12/24 01:09:37;;;;;;;;;;;13.00;65.00;;;;;;6181278;23;19916;-90
2021/12/24 01:12:03;;;;;;;;;;;13.00;65.00;;;;;;6178700;23;19908;-90
2021/12/24 01:14:30;;;;;;;;;;;13.00;65.00;;;;;;6154629;23;19923;-90
2021/12/24 01:17:09;;;;;;;;;;;13.10;65.00;;;;;;6181821;23;20219;-89
2021/12/24 01:19:38;;;;;;;;;;;13.10;65.00;;;;;;6185022;23;19927;-89
2021/12/24 01:22:39;;;;;;;;;;;13.10;65.00;;;;;;6157174;23;19923;-89
2021/12/24 01:25:09;;;;;;;;;;;13.10;65.00;;;;;;6186103;23;19917;-89
2021/12/24 01:27:56;;;;;;;;;;;13.20;65.10;;;;;;6181459;23;19928;-89
2021/12/24 01:38:20;;;;;;;;;;;13.20;65.00;;;;;;6183576;23;19977;-89
2021/12/24 01:41:04;;;;;;;;;;;13.20;65.10;;;;;;6161120;23;19908;-89
2021/12/24 01:43:30;;;;;;;;;;;13.20;65.00;;;;;;6160172;23;19990;-89
2021/12/24 01:45:56;;;;;;;;;;;13.30;65.00;;;;;;6189894;23;20309;-89
2021/12/24 01:48:22;;;;;;;;;;;13.30;65.00;;;;;;6182108;23;19913;-89
2021/12/24 01:50:49;;;;;;;;;;;13.30;65.10;;;;;;6184350;23;20652;-89
2021/12/24 01:53:15;;;;;;;;;;;13.30;65.00;;;;;;6158864;23;19916;-88
2021/12/24 01:55:42;;;;;;;;;;;13.30;65.00;;;;;;6158436;23;19955;-89
2021/12/24 01:58:08;;;;;;;;;;;13.40;65.00;;;;;;6159893;23;19911;-89
2021/12/24 02:00:38;;;;;;;;;;;13.40;65.00;;;;;;6160112;23;19908;-89
2021/12/24 02:03:04;;;;;;;;;;;13.40;65.00;;;;;;6184837;23;19908;-89
2021/12/24 02:05:31;;;;;;;;;;;13.40;65.00;;;;;;6162395;23;19916;-89
2021/12/24 02:07:58;;;;;;;;;;;13.50;65.00;;;;;;6191463;23;19915;-89
2021/12/24 02:10:23;;;;;;;;;;;13.50;65.00;;;;;;6164406;23;19987;-89
2021/12/24 02:12:49;;;;;;;;;;;13.50;65.00;;;;;;6160548;23;19903;-89
2021/12/24 02:15:26;;;;;;;;;;;13.50;65.00;;;;;;6186132;23;19918;-89
2021/12/24 02:18:34;;;;;;;;;;;13.50;65.10;;;;;;6182301;23;20367;-89
2021/12/24 02:29:06;;;;;;;;;;;13.60;65.10;;;;;;6182346;23;19926;-89
2021/12/24 02:31:32;;;;;;;;;;;13.60;65.30;;;;;;6183865;23;20298;-89
2021/12/24 02:33:57;;;;;;;;;;;13.60;65.10;;;;;;6158710;23;19940;-89
2021/12/24 02:36:23;;;;;;;;;;;13.60;65.10;;;;;;6181914;23;19911;-89
2021/12/24 02:38:49;;;;;;;;;;;13.60;65.00;;;;;;6185985;23;19949;-89
2021/12/24 02:41:15;;;;;;;;;;;13.60;65.10;;;;;;6160278;23;19911;-89
2021/12/24 02:43:41;;;;;;;;;;;13.70;65.10;;;;;;6154801;23;19920;-89
2021/12/24 02:46:14;;;;;;;;;;;13.60;65.10;;;;;;6183038;23;19916;-89
2021/12/24 02:54:08;;;;;;;;;;;13.70;65.10;;;;;;6185606;23;19923;-90
2021/12/24 02:56:35;;;;;;;;;;;13.70;65.30;;;;;;6181874;23;20317;-90
2021/12/24 02:59:03;;;;;;;;;;;13.70;65.20;;;;;;6188111;23;19947;-90
2021/12/24 03:01:33;;;;;;;;;;;13.80;65.20;;;;;;6157833;23;19954;-88
2021/12/24 03:03:59;;;;;;;;;;;13.80;65.10;;;;;;6186043;23;19960;-89
2021/12/24 03:06:26;;;;;;;;;;;13.80;65.20;;;;;;6157953;23;19920;-87
2021/12/24 03:08:52;;;;;;;;;;;13.80;65.30;;;;;;6154854;23;19916;-90
2021/12/24 03:11:17;;;;;;;;;;;13.80;65.20;;;;;;6183114;23;19904;-91
2021/12/24 03:13:43;;;;;;;;;;;13.80;65.30;;;;;;6189896;23;19923;-88
2021/12/24 03:16:09;;;;;;;;;;;13.80;65.20;;;;;;6160200;23;19912;-88
2021/12/24 03:18:37;;;;;;;;;;;13.80;65.30;;;;;;6157274;23;19916;-90
2021/12/24 03:21:08;;;;;;;;;;;13.90;65.30;;;;;;6182119;23;19978;-90
2021/12/24 03:23:38;;;;;;;;;;;13.90;65.30;;;;;;6182929;23;20329;-88
2021/12/24 03:26:04;;;;;;;;;;;13.90;65.30;;;;;;6184612;23;20716;-88
2021/12/24 03:28:30;;;;;;;;;;;13.90;65.30;;;;;;6156244;23;20087;-90
2021/12/24 03:30:55;;;;;;;;;;;14.00;65.30;;;;;;6183207;23;19979;-90
2021/12/24 03:33:21;;;;;;;;;;;14.00;65.30;;;;;;6180345;23;19923;-90
2021/12/24 03:35:46;;;;;;;;;;;14.00;65.30;;;;;;6180482;23;20329;-90
2021/12/24 03:38:12;;;;;;;;;;;14.00;65.20;;;;;;6183924;23;19909;-90
2021/12/24 03:40:37;;;;;;;;;;;14.00;65.20;;;;;;6182055;23;19915;-90
2021/12/24 03:43:03;;;;;;;;;;;14.00;65.40;;;;;;6182354;23;19991;-89
2021/12/24 03:45:37;;;;;;;;;;;14.00;65.40;;;;;;6180323;23;19905;-90
2021/12/24 03:48:14;;;;;;;;;;;14.10;65.40;;;;;;6180766;23;19947;-89
2021/12/24 03:50:49;;;;;;;;;;;14.10;65.40;;;;;;6186882;23;19905;-90
2021/12/24 03:55:59;;;;;;;;;;;14.20;65.20;;;;;;6181878;23;19999;-90
2021/12/24 03:58:24;;;;;;;;;;;14.30;65.10;;;;;;6182661;23;19940;-90
2021/12/24 04:00:51;;;;;;;;;;;14.20;65.10;;;;;;6183118;23;19923;-90
2021/12/24 04:03:17;;;;;;;;;;;14.30;65.00;;;;;;6185466;23;19927;-89
2021/12/24 04:05:42;;;;;;;;;;;14.30;65.00;;;;;;6181993;23;19908;-90
2021/12/24 04:08:08;;;;;;;;;;;14.30;65.00;;;;;;6183044;23;20415;-90
2021/12/24 04:10:42;;;;;;;;;;;14.30;65.10;;;;;;6182737;23;19909;-89
2021/12/24 04:13:08;;;;;;;;;;;14.30;65.10;;;;;;6181543;23;19948;-89
2021/12/24 04:15:34;;;;;;;;;;;14.30;65.20;;;;;;6182474;23;19971;-90
2021/12/24 04:18:00;;;;;;;;;;;14.30;65.20;;;;;;6159957;23;19912;-90
2021/12/24 04:25:54;;;;;;;;;;;14.40;65.20;;;;;;6185172;23;19954;-89
2021/12/24 04:28:20;;;;;;;;;;;14.40;65.30;;;;;;6198029;23;19916;-87
2021/12/24 04:30:50;;;;;;;;;;;14.40;65.20;;;;;;6193643;23;19924;-89
2021/12/24 04:33:22;;;;;;;;;;;14.40;65.20;;;;;;6186739;23;19912;-89
2021/12/24 04:36:15;;;;;;;;;;;14.40;65.30;;;;;;6165723;23;19921;-88
2021/12/24 04:39:08;;;;;;;;;;;14.40;65.40;;;;;;6188890;23;19959;-88
2021/12/24 05:03:33;;;;;;;;;;;14.50;65.70;;;;;;6184992;23;19943;-88
2021/12/24 05:08:50;;;;;;;;;;;14.60;65.50;;;;;;6184772;23;19937;-88
2021/12/24 05:11:16;;;;;;;;;;;14.50;65.50;;;;;;6155927;23;19920;-89
2021/12/24 05:13:41;;;;;;;;;;;14.60;65.50;;;;;;6184258;23;19908;-88
2021/12/24 05:21:32;;;;;;;;;;;14.60;65.50;;;;;;6194517;23;19912;-88
2021/12/24 05:21:46;;;;;;;;;;;14.60;65.60;;;;;;6185768;23;19943;-89
2021/12/24 05:24:13;;;;;;;;;;;14.60;65.70;;;;;;6185139;23;19915;-89
2021/12/24 05:26:40;;;;;;;;;;;14.70;65.60;;;;;;6157269;23;19942;-88
2021/12/24 05:29:06;;;;;;;;;;;14.70;65.60;;;;;;6188295;23;19919;-88
2021/12/24 05:31:32;;;;;;;;;;;14.70;65.50;;;;;;6183910;23;19919;-88
2021/12/24 05:33:58;;;;;;;;;;;14.70;65.60;;;;;;6185777;23;19912;-88
2021/12/24 05:36:24;;;;;;;;;;;14.70;65.60;;;;;;6164532;23;19920;-89
2021/12/24 05:38:49;;;;;;;;;;;14.70;65.60;;;;;;6195108;23;19975;-88
2021/12/24 05:41:16;;;;;;;;;;;14.70;65.70;;;;;;6186171;23;19999;-88
2021/12/24 05:43:41;;;;;;;;;;;14.70;65.70;;;;;;6163592;23;19967;-88
2021/12/24 05:46:07;;;;;;;;;;;14.80;65.70;;;;;;6158932;23;19912;-88
2021/12/24 05:48:33;;;;;;;;;;;14.80;65.60;;;;;;6164632;23;19927;-88
2021/12/24 05:50:58;;;;;;;;;;;14.80;65.50;;;;;;6187775;23;20030;-89
2021/12/24 05:53:25;;;;;;;;;;;14.70;65.60;;;;;;6186326;23;19986;-89
2021/12/24 05:55:50;;;;;;;;;;;14.80;65.80;;;;;;6182535;23;19920;-88
2021/12/24 05:58:16;;;;;;;;;;;14.80;65.80;;;;;;6186012;23;19908;-88
2021/12/24 06:00:43;;;;;;;;;;;14.80;65.90;;;;;;6184764;23;19912;-88
2021/12/24 06:03:09;;;;;;;;;;;14.80;65.80;;;;;;6162317;23;19908;-88
2021/12/24 06:05:35;;;;;;;;;;;14.80;65.80;;;;;;6157110;23;19986;-88
2021/12/24 06:08:01;;;;;;;;;;;14.80;65.70;;;;;;6159395;23;19912;-88
2021/12/24 06:10:26;;;;;;;;;;;14.90;65.70;;;;;;6182550;23;19991;-88
2021/12/24 06:12:52;;;;;;;;;;;14.90;65.60;;;;;;6187418;23;19911;-88
2021/12/24 06:15:23;;;;;;;;;;;14.90;65.60;;;;;;6159691;23;19919;-89
2021/12/24 06:17:51;;;;;;;;;;;15.00;65.60;;;;;;6158174;23;20356;-88
2021/12/24 06:20:17;;;;;;;;;;;14.90;65.60;;;;;;6162466;23;20042;-88
2021/12/24 06:22:42;;;;;;;;;;;15.00;65.50;;;;;;6159019;23;19935;-89
2021/12/24 06:25:08;;;;;;;;;;;15.00;65.50;;;;;;6188422;23;20018;-89
2021/12/24 06:27:33;;;;;;;;;;;15.00;65.50;;;;;;6187379;23;19977;-88
2021/12/24 06:29:59;;;;;;;;;;;15.00;65.50;;;;;;6181714;23;19928;-88
2021/12/24 06:32:24;;;;;;;;;;;15.00;65.50;;;;;;6184514;23;19912;-88
2021/12/24 06:34:50;;;;;;;;;;;15.00;65.50;;;;;;6183776;23;19927;-88
2021/12/24 06:37:16;;;;;;;;;;;15.00;65.50;;;;;;6182858;23;19920;-91
2021/12/24 06:39:42;;;;;;;;;;;15.00;65.50;;;;;;6187607;23;19912;-87
2021/12/24 06:42:07;;;;;;;;;;;15.00;65.60;;;;;;6185355;23;19916;-88
2021/12/24 06:44:33;;;;;;;;;;;15.00;65.60;;;;;;6186364;23;20356;-88
2021/12/24 06:46:59;;;;;;;;;;;15.00;65.50;;;;;;6184782;23;19912;-88
2021/12/24 06:49:24;;;;;;;;;;;15.00;65.60;;;;;;6185608;23;19912;-88
2021/12/24 06:51:50;;;;;;;;;;;15.00;65.40;;;;;;6189722;23;20703;-88
2021/12/24 06:54:17;;;;;;;;;;;15.00;65.50;;;;;;6162819;23;19928;-88
2021/12/24 06:56:44;;;;;;;;;;;14.90;65.50;;;;;;6188400;23;19921;-88
2021/12/24 06:59:09;;;;;;;;;;;15.00;65.50;;;;;;6162888;23;19935;-88
2021/12/24 07:01:35;;;;;;;;;;;14.90;65.50;;;;;;6184781;23;20421;-88
2021/12/24 07:04:00;;;;;;;;;;;14.90;65.50;;;;;;6160363;23;19917;-88
2021/12/24 07:06:26;;;;;;;;;;;15.00;65.50;;;;;;6185010;23;19919;-88
2021/12/24 07:08:51;;;;;;;;;;;15.00;65.50;;;;;;6189205;23;19916;-88
2021/12/24 07:11:17;;;;;;;;;;;15.00;65.50;;;;;;6182038;23;19912;-88
2021/12/24 07:13:42;;;;;;;;;;;15.10;65.40;;;;;;6186674;23;19996;-88
2021/12/24 07:16:08;;;;;;;;;;;15.00;65.50;;;;;;6186574;23;20593;-88
2021/12/24 07:18:33;;;;;;;;;;;15.10;65.60;;;;;;6183175;23;19912;-89
2021/12/24 07:20:59;;;;;;;;;;;15.10;65.50;;;;;;6183689;23;19909;-88
2021/12/24 07:23:24;;;;;;;;;;;15.20;65.50;;;;;;6187548;23;19944;-89
2021/12/24 07:25:50;;;;;;;;;;;15.20;65.50;;;;;;6160121;23;19923;-88
2021/12/24 07:28:15;;;;;;;;;;;15.30;65.40;;;;;;6185893;23;19990;-88
2021/12/24 07:30:41;;;;;;;;;;;15.30;65.40;;;;;;6181311;23;19995;-88
2021/12/24 07:33:06;;;;;;;;;;;15.30;65.30;;;;;;6183125;23;19986;-88
2021/12/24 07:35:32;;;;;;;;;;;15.30;65.30;;;;;;6159310;23;20359;-88
2021/12/24 07:37:58;;;;;;;;;;;15.30;65.30;;;;;;6185507;23;19904;-89
2021/12/24 07:40:25;;;;;;;;;;;15.30;65.20;;;;;;6185665;23;19912;-89
2021/12/24 07:42:51;;;;;;;;;;;15.40;65.20;;;;;;6157588;23;20205;-89
2021/12/24 07:45:17;;;;;;;;;;;15.40;65.10;;;;;;6188295;23;20331;-89
2021/12/24 07:47:44;;;;;;;;;;;15.40;65.10;;;;;;6161979;23;19912;-89
2021/12/24 07:50:16;;;;;;;;;;;15.40;65.10;;;;;;6185661;23;19932;-89
2021/12/24 07:52:42;;;;;;;;;;;15.40;65.10;;;;;;6184894;23;19915;-89
2021/12/24 07:55:09;;;;;;;;;;;15.40;65.00;;;;;;6166639;23;19979;-88
2021/12/24 07:57:35;;;;;;;;;;;15.50;65.10;;;;;;6184369;23;19935;-89
2021/12/24 08:00:00;;;;;;;;;;;15.50;65.10;;;;;;6186661;23;19912;-89
2021/12/24 08:02:27;;;;;;;;;;;15.40;65.00;;;;;;6159770;23;19959;-89
2021/12/24 08:04:53;;;;;;;;;;;15.40;65.00;;;;;;6182963;23;19909;-89
2021/12/24 08:07:20;;;;;;;;;;;15.30;65.10;;;;;;6187814;23;19916;-89
2021/12/24 08:09:49;;;;;;;;;;;15.40;65.20;;;;;;6158162;23;19908;-89
2021/12/24 08:12:15;;;;;;;;;;;15.30;65.10;;;;;;6187226;23;19943;-89
2021/12/24 08:14:40;;;;;;;;;;;15.30;65.20;;;;;;6187989;23;19912;-89
2021/12/24 08:17:06;;;;;;;;;;;15.30;65.30;;;;;;6184214;23;19956;-89
2021/12/24 08:19:32;;;;;;;;;;;15.30;65.30;;;;;;6185530;23;19915;-89
2021/12/24 08:21:58;;;;;;;;;;;15.40;65.40;;;;;;6159308;23;19916;-89
2021/12/24 08:24:23;;;;;;;;;;;15.30;65.40;;;;;;6155966;23;20224;-89
2021/12/24 08:26:49;;;;;;;;;;;15.30;65.40;;;;;;6183967;23;20229;-89
2021/12/24 08:29:14;;;;;;;;;;;15.30;65.40;;;;;;6189005;23;19955;-89
2021/12/24 08:31:40;;;;;;;;;;;15.30;65.20;;;;;;6189065;23;19916;-89
2021/12/24 08:34:06;;;;;;;;;;;15.30;65.30;;;;;;6195152;23;19935;-89
2021/12/24 08:36:32;;;;;;;;;;;15.20;65.40;;;;;;6161776;23;19927;-89
2021/12/24 08:38:58;;;;;;;;;;;15.20;65.40;;;;;;6188296;23;19924;-89
2021/12/24 08:41:24;;;;;;;;;;;15.20;65.50;;;;;;6184416;23;20003;-89
2021/12/24 08:43:50;;;;;;;;;;;15.20;65.50;;;;;;6190264;23;19940;-89
2021/12/24 08:46:15;;;;;;;;;;;15.20;65.50;;;;;;6163439;23;19964;-89
2021/12/24 08:48:41;;;;;;;;;;;15.20;65.40;;;;;;6189717;23;19913;-89
2021/12/24 08:51:06;;;;;;;;;;;15.20;65.40;;;;;;6163766;23;19912;-89
2021/12/24 08:53:32;;;;;;;;;;;15.10;65.50;;;;;;6187326;23;19919;-88
2021/12/24 08:55:57;;;;;;;;;;;15.10;65.50;;;;;;6162216;23;20214;-88
2021/12/24 08:58:23;;;;;;;;;;;15.10;65.60;;;;;;6190796;23;19951;-88
2021/12/24 09:00:48;;;;;;;;;;;15.10;65.50;;;;;;6170571;23;19896;-89
2021/12/24 09:03:14;;;;;;;;;;;15.10;65.50;;;;;;6185052;23;19908;-89
2021/12/24 09:05:40;;;;;;;;;;;15.10;65.70;;;;;;6190118;23;19912;-88
2021/12/24 09:08:05;;;;;;;;;;;15.10;65.70;;;;;;6186121;23;19908;-89
2021/12/24 09:10:30;;;;;;;;;;;15.10;65.70;;;;;;6162484;23;19909;-89
2021/12/24 09:12:56;;;;;;;;;;;15.10;65.70;;;;;;6185596;23;19908;-88
2021/12/24 09:15:22;;;;;;;;;;;15.10;65.70;;;;;;6188527;23;19939;-89
2021/12/24 09:17:48;;;;;;;;;;;15.10;65.70;;;;;;6184752;23;19951;-88
2021/12/24 09:20:15;;;;;;;;;;;15.10;65.70;;;;;;6198121;23;19904;-89
2021/12/24 09:22:41;;;;;;;;;;;15.20;65.70;;;;;;6184997;23;20348;-89
2021/12/24 09:25:07;;;;;;;;;;;15.10;65.70;;;;;;6184770;23;19912;-89
2021/12/24 09:27:33;;;;;;;;;;;15.20;65.80;;;;;;6186242;23;19928;-89
2021/12/24 09:29:59;;;;;;;;;;;15.20;65.60;;;;;;6189012;23;19936;-89
2021/12/24 09:32:28;;;;;;;;;;;15.20;65.60;;;;;;6182609;23;19992;-89
2021/12/24 09:34:54;;;;;;;;;;;15.20;65.50;;;;;;6186969;23;19912;-90
2021/12/24 09:37:20;;;;;;;;;;;15.20;65.50;;;;;;6159697;23;20520;-89
2021/12/24 09:39:46;;;;;;;;;;;15.20;65.60;;;;;;6182714;23;19966;-89
2021/12/24 09:42:12;;;;;;;;;;;15.20;65.40;;;;;;6192148;23;19988;-88
2021/12/24 09:44:37;;;;;;;;;;;15.20;65.60;;;;;;6170424;23;19912;-89
2021/12/24 09:47:03;;;;;;;;;;;15.20;65.60;;;;;;6202377;23;19920;-90
2021/12/24 09:49:29;;;;;;;;;;;15.20;65.70;;;;;;6157989;23;19932;-88
2021/12/24 09:51:54;;;;;;;;;;;15.20;65.70;;;;;;6191023;23;20596;-88
2021/12/24 09:54:21;;;;;;;;;;;15.30;65.60;;;;;;6183907;23;19940;-88
2021/12/24 09:56:47;;;;;;;;;;;15.20;65.70;;;;;;6186298;23;19916;-88
2021/12/24 09:59:12;;;;;;;;;;;15.30;65.70;;;;;;6160208;23;20639;-89
2021/12/24 10:01:43;;;;;;;;;;;15.30;65.60;;;;;;6184821;23;19935;-88
2021/12/24 10:04:10;;;;;;;;;;;15.40;65.50;;;;;;6192724;23;20376;-88
2021/12/24 10:06:35;;;;;;;;;;;15.30;65.30;;;;;;6158823;23;19916;-88
2021/12/24 10:09:08;;;;;;;;;;;15.40;65.30;;;;;;6182509;23;19939;-88
2021/12/24 10:11:47;;;;;;;;;;;15.40;65.30;;;;;;6157621;23;20308;-89
2021/12/24 10:14:13;;;;;;;;;;;15.40;65.20;;;;;;6186195;23;19923;-89
2021/12/24 10:16:47;;;;;;;;;;;15.40;65.20;;;;;;6165616;23;19991;-89
2021/12/24 10:19:13;;;;;;;;;;;15.40;65.20;;;;;;6163774;23;19932;-88
2021/12/24 10:21:39;;;;;;;;;;;15.40;65.20;;;;;;6191925;23;19896;-88
2021/12/24 10:24:10;;;;;;;;;;;15.40;65.20;;;;;;6188899;23;19907;-90
2021/12/24 10:26:37;;;;;;;;;;;15.40;65.10;;;;;;6193700;23;19983;-90
2021/12/24 10:29:05;;;;;;;;;;;15.40;65.00;;;;;;6163265;23;20471;-90
2021/12/24 10:31:35;;;;;;;;;;;15.40;64.90;;;;;;6185758;23;19917;-90
2021/12/24 10:34:08;;;;;;;;;;;15.40;64.90;;;;;;6187972;23;19916;-88
2021/12/24 10:36:49;;;;;;;;;;;15.40;64.80;;;;;;6190018;23;19923;-90
2021/12/24 10:39:14;;;;;;;;;;;15.40;64.90;;;;;;6193428;23;19908;-88
2021/12/24 10:41:45;;;;;;;;;;;15.30;65.00;;;;;;6188954;23;19931;-90
2021/12/24 10:44:17;;;;;;;;;;;15.30;64.90;;;;;;6163364;23;19954;-88
2021/12/24 10:47:02;;;;;;;;;;;15.30;65.00;;;;;;6188637;23;19919;-88
2021/12/24 10:55:06;;;;;;;;;;;15.20;65.20;;;;;;6190370;23;19908;-89
2021/12/24 10:57:33;;;;;;;;;;;15.20;65.20;;;;;;6183912;23;19928;-88
2021/12/24 11:00:00;;;;;;;;;;;15.20;65.20;;;;;;6185312;23;19911;-89
2021/12/24 11:02:28;;;;;;;;;;;15.20;65.30;;;;;;6186225;23;19987;-89
2021/12/24 11:04:53;;;;;;;;;;;15.20;65.10;;;;;;6158251;23;19912;-89
2021/12/24 11:07:39;;;;;;;;;;;15.30;65.20;;;;;;6184895;23;19909;-89
2021/12/24 11:10:15;;;;;;;;;;;15.30;65.00;;;;;;6185263;23;19918;-89
2021/12/24 11:12:41;;;;;;;;;;;15.20;65.00;;;;;;6163329;23;19917;-89
2021/12/24 11:15:20;;;;;;;;;;;15.30;65.10;;;;;;6197360;23;19915;-90
2021/12/24 11:17:46;;;;;;;;;;;15.20;65.10;;;;;;6193728;23;19935;-91
2021/12/24 11:20:12;;;;;;;;;;;15.30;65.10;;;;;;6188171;23;19983;-89
2021/12/24 11:23:10;;;;;;;;;;;15.30;65.10;;;;;;6184912;23;19967;-89
2021/12/24 11:25:40;;;;;;;;;;;15.30;65.10;;;;;;6154062;23;19962;-88
2021/12/24 11:28:07;;;;;;;;;;;15.20;65.10;;;;;;6166509;23;19916;-88
2021/12/24 11:30:33;;;;;;;;;;;15.30;65.10;;;;;;6184584;23;19916;-88
2021/12/24 11:32:59;;;;;;;;;;;15.20;65.00;;;;;;6185950;23;19928;-89
2021/12/24 11:35:26;;;;;;;;;;;15.20;65.00;;;;;;6182585;23;20182;-89
2021/12/24 11:37:53;;;;;;;;;;;15.20;64.90;;;;;;6156350;23;19927;-89
2021/12/24 11:40:20;;;;;;;;;;;15.20;64.90;;;;;;6191094;23;19950;-89
2021/12/24 11:45:24;;;;;;;;;;;15.20;64.90;;;;;;6185617;23;19928;-87
2021/12/24 11:47:50;;;;;;;;;;;15.20;64.90;;;;;;6184098;23;19939;-88
2021/12/24 11:50:16;;;;;;;;;;;15.10;65.00;;;;;;6183965;23;19916;-87
2021/12/24 11:52:45;;;;;;;;;;;15.10;65.00;;;;;;6183964;23;19916;-88
2021/12/24 11:55:10;;;;;;;;;;;15.10;65.00;;;;;;6183947;23;19911;-88
2021/12/24 11:57:48;;;;;;;;;;;15.00;65.10;;;;;;6184011;23;19913;-88
2021/12/24 12:00:20;;;;;;;;;;;15.00;65.10;;;;;;6187257;23;19967;-88
2021/12/24 12:02:45;;;;;;;;;;;14.90;65.10;;;;;;6188027;23;19912;-88
2021/12/24 12:05:15;;;;;;;;;;;14.90;65.10;;;;;;6188273;23;19908;-87
2021/12/24 12:07:43;;;;;;;;;;;14.90;65.20;;;;;;6185667;23;19962;-88
2021/12/24 12:10:09;;;;;;;;;;;14.80;65.30;;;;;;6186509;23;19919;-87
2021/12/24 12:12:36;;;;;;;;;;;14.80;65.40;;;;;;6187201;23;19905;-87
2021/12/24 12:15:20;;;;;;;;;;;14.80;65.30;;;;;;6185697;23;19908;-90
2021/12/24 12:17:53;;;;;;;;;;;14.80;65.30;;;;;;6188031;23;19912;-89
2021/12/24 12:20:35;;;;;;;;;;;14.80;65.40;;;;;;6188063;23;20301;-87
2021/12/24 12:23:02;;;;;;;;;;;14.80;65.40;;;;;;6162229;23;19905;-87
2021/12/24 12:25:32;;;;;;;;;;;14.80;65.40;;;;;;6161465;23;19919;-87
2021/12/24 12:27:58;;;;;;;;;;;14.80;65.50;;;;;;6161359;23;19939;-88
2021/12/24 12:30:46;;;;;;;;;;;14.80;65.50;;;;;;6161159;23;20309;-86
2021/12/24 12:33:12;;;;;;;;;;;14.80;65.50;;;;;;6160866;23;20012;-87
2021/12/24 12:35:40;;;;;;;;;;;14.80;65.60;;;;;;6161025;23;19912;-87
2021/12/24 12:38:22;;;;;;;;;;;14.70;65.50;;;;;;6161162;23;20674;-87
2021/12/24 12:40:48;;;;;;;;;;;14.70;65.40;;;;;;6160788;23;19905;-87
2021/12/24 12:43:17;;;;;;;;;;;14.70;65.60;;;;;;6186953;23;20321;-85
2021/12/24 12:45:43;;;;;;;;;;;14.70;65.60;;;;;;6161036;23;20325;-87
2021/12/24 12:48:10;;;;;;;;;;;14.80;65.50;;;;;;6186856;23;20326;-87
2021/12/24 12:50:37;;;;;;;;;;;14.80;65.50;;;;;;6160597;23;19904;-86
2021/12/24 12:53:21;;;;;;;;;;;14.80;65.50;;;;;;6160035;23;19912;-87
2021/12/24 12:55:46;;;;;;;;;;;14.80;65.40;;;;;;6184942;23;20340;-87
2021/12/24 12:58:23;;;;;;;;;;;14.70;65.60;;;;;;6160469;23;19908;-86
2021/12/24 13:01:10;;;;;;;;;;;14.80;65.50;;;;;;6186622;23;19927;-87
2021/12/24 13:03:56;;;;;;;;;;;14.70;65.50;;;;;;6186298;23;19923;-86
2021/12/24 13:06:25;;;;;;;;;;;14.70;65.60;;;;;;6168152;23;19919;-87
2021/12/24 13:08:51;;;;;;;;;;;14.80;65.60;;;;;;6186539;23;19912;-87
2021/12/24 13:11:18;;;;;;;;;;;14.80;65.50;;;;;;6186073;23;19912;-87
2021/12/24 13:13:53;;;;;;;;;;;14.80;65.50;;;;;;6159973;23;19983;-86
2021/12/24 13:16:20;;;;;;;;;;;14.70;65.60;;;;;;6186448;23;20580;-87
2021/12/24 13:18:54;;;;;;;;;;;14.70;65.60;;;;;;6186455;23;20357;-86
2021/12/24 13:24:11;;;;;;;;;;;14.80;65.60;;;;;;6186454;23;19920;-87
2021/12/24 13:26:37;;;;;;;;;;;14.80;65.80;;;;;;6160099;23;19908;-87
2021/12/24 13:29:11;;;;;;;;;;;14.80;65.60;;;;;;6184614;23;19919;-86
2021/12/24 13:31:36;;;;;;;;;;;14.80;65.70;;;;;;6160129;23;19904;-86
2021/12/24 13:34:11;;;;;;;;;;;14.80;65.70;;;;;;6159440;23;19909;-87
2021/12/24 13:36:37;;;;;;;;;;;14.80;65.60;;;;;;6185989;23;19916;-87
2021/12/24 13:39:09;;;;;;;;;;;14.80;65.60;;;;;;6184962;23;19966;-88
2021/12/24 13:41:35;;;;;;;;;;;14.90;65.60;;;;;;6186412;23;19904;-88
2021/12/24 13:44:01;;;;;;;;;;;14.80;65.60;;;;;;6184819;23;19912;-88
2021/12/24 13:46:29;;;;;;;;;;;14.80;65.50;;;;;;6160179;23;20226;-88
2021/12/24 13:49:44;;;;;;;;;;;14.80;65.50;;;;;;6185342;23;20281;-88
2021/12/24 13:54:35;;;;;;;;;;;14.80;65.50;;;;;;6186971;23;19918;-88
2021/12/24 13:57:03;;;;;;;;;;;14.80;65.60;;;;;;6161271;23;19975;-87
2021/12/24 13:59:29;;;;;;;;;;;14.80;65.60;;;;;;6161327;23;19911;-87
2021/12/24 14:01:55;;;;;;;;;;;14.80;65.60;;;;;;6187654;23;19908;-87
2021/12/24 14:04:22;;;;;;;;;;;14.80;65.60;;;;;;6160514;23;19920;-87
2021/12/24 14:06:49;;;;;;;;;;;14.80;65.60;;;;;;6160630;23;19919;-87
2021/12/24 14:09:19;;;;;;;;;;;14.80;65.60;;;;;;6160077;23;19955;-87
2021/12/24 14:11:46;;;;;;;;;;;14.80;65.70;;;;;;6160107;23;20384;-86
2021/12/24 14:15:15;;;;;;;;;;;14.80;65.70;;;;;;6159959;23;19913;-87
2021/12/24 14:20:24;;;;;;;;;;;14.80;65.50;;;;;;6173009;23;19913;-87
2021/12/24 14:22:50;;;;;;;;;;;14.80;65.30;;;;;;6185569;23;19943;-86
2021/12/24 14:25:16;;;;;;;;;;;14.70;64.70;;;;;;6158800;23;19908;-87
2021/12/24 14:27:46;;;;;;;;;;;14.60;63.30;;;;;;6184194;23;19919;-87
2021/12/24 14:30:12;;;;;;;;;;;14.30;61.40;;;;;;6185931;23;20664;-86
2021/12/24 14:32:39;;;;;;;;;;;13.90;60.40;;;;;;6159778;23;20261;-86
2021/12/24 14:35:15;;;;;;;;;;;13.50;60.30;;;;;;6185449;23;19912;-90
2021/12/24 14:37:41;;;;;;;;;;;13.10;60.30;;;;;;6159496;23;19998;-87
2021/12/24 14:40:06;;;;;;;;;;;12.70;60.50;;;;;;6159807;23;19908;-86
2021/12/24 14:42:35;;;;;;;;;;;12.40;60.80;;;;;;6158919;23;19986;-87
2021/12/24 14:45:12;;;;;;;;;;;12.10;61.30;;;;;;6185445;23;19927;-87
2021/12/24 14:47:39;;;;;;;;;;;11.90;61.60;;;;;;6157072;23;19912;-87
2021/12/24 14:50:10;;;;;;;;;;;11.70;62.10;;;;;;6133499;23;19916;-87
2021/12/24 14:52:39;;;;;;;;;;;11.60;62.50;;;;;;6157984;23;21303;-86
2021/12/24 14:55:07;;;;;;;;;;;11.40;62.80;;;;;;6185997;23;19912;-88
2021/12/24 14:57:35;;;;;;;;;;;11.40;63.00;;;;;;6159928;23;19913;-87
2021/12/24 15:00:09;;;;;;;;;;;11.30;63.20;;;;;;6186381;23;20313;-87
2021/12/24 15:02:39;;;;;;;;;;;11.20;63.30;;;;;;6159367;23;19909;-87
2021/12/24 15:05:05;;;;;;;;;;;11.20;63.40;;;;;;6159973;23;19915;-88
2021/12/24 15:07:31;;;;;;;;;;;11.10;63.60;;;;;;6184386;23;20501;-87
2021/12/24 15:10:10;;;;;;;;;;;11.10;63.60;;;;;;6185565;23;19960;-87
2021/12/24 15:12:43;;;;;;;;;;;11.10;63.70;;;;;;6185968;23;20285;-87
2021/12/24 15:15:09;;;;;;;;;;;11.10;63.90;;;;;;6158868;23;19983;-87
2021/12/24 15:17:41;;;;;;;;;;;11.00;64.00;;;;;;6185576;23;19912;-86
2021/12/24 15:20:07;;;;;;;;;;;11.10;64.20;;;;;;6185775;23;19982;-86
2021/12/24 15:22:32;;;;;;;;;;;11.10;64.10;;;;;;6159103;23;20343;-86
2021/12/24 15:24:58;;;;;;;;;;;11.20;64.10;;;;;;6185347;23;19935;-86
2021/12/24 15:27:31;;;;;;;;;;;11.20;64.20;;;;;;6184988;23;19915;-86
2021/12/24 15:29:56;;;;;;;;;;;11.30;64.10;;;;;;6158902;23;20032;-86
2021/12/24 15:32:22;;;;;;;;;;;11.30;63.90;;;;;;6185396;23;20278;-86
2021/12/24 15:34:47;;;;;;;;;;;11.30;63.80;;;;;;6184653;23;19912;-86
2021/12/24 15:37:13;;;;;;;;;;;11.30;63.70;;;;;;6185151;23;20018;-86
2021/12/24 15:39:38;;;;;;;;;;;11.40;63.70;;;;;;6185382;23;19915;-86
2021/12/24 15:42:04;;;;;;;;;;;11.30;63.90;;;;;;6184044;23;19979;-88
2021/12/24 15:44:30;;;;;;;;;;;11.30;63.70;;;;;;6185473;23;20038;-87
2021/12/24 15:46:55;;;;;;;;;;;11.30;63.40;;;;;;6159317;23;19923;-87
2021/12/24 15:49:20;;;;;;;;;;;11.20;63.30;;;;;;6185145;23;19904;-87
2021/12/24 15:51:46;;;;;;;;;;;11.20;63.10;;;;;;6185437;23;20344;-87
2021/12/24 15:54:12;;;;;;;;;;;11.10;63.00;;;;;;6184838;23;19927;-86
2021/12/24 15:56:37;;;;;;;;;;;11.10;62.90;;;;;;6185634;23;19916;-87